Moretown, Vermont
Current Conditions -  °F | °C
As of 11:59 AM on Friday 28 Nov 2014 (Local Time) from KMPV Reporting Station
Overcast Overcast  
Wind Chill: 13°   Ceiling: 2600
Heat Index: 22°   Visibility: 10mi
Dew Point: 15°   Wind: 7mph
Humidity: 75%   Direction: NA
Pressure: 30.07"   Gusts: NA
Location:  44.25°N, 72.76°W
Report Text: KMPV 281659Z AUTO VRB06KT 10SM BKN026 OVC031 M06/M09 A3007 RMK AO2 T10561094
Loading
Personal Weather Stations






























Interactive Weather Map New forecast layout! Learn more

10-Day Weather Forecast

Advertisements
Track Severe Weather on mobile